Time;durP1;ratioP1;P1;durP2;ratioP2;P2;SDS_P1;SDS_P2;PMS_P1;PMS_P2;Temp;Humidity;BMP_temperature;BMP_pressure;BME280_temperature;BME280_humidity;BME280_pressure;Samples;Min_cycle;Max_cycle;Signal;HPM_P1;HPM_P2
2022/04/13 00:00:27;;;;;;;4.95;1.70;;;;;;;16.70;42.63;98434.00;5094852;28;20066;-50
2022/04/13 00:02:54;;;;;;;10.43;3.17;;;;;;;16.57;42.88;98440.47;5094917;28;20034;-50
2022/04/13 00:05:19;;;;;;;15.65;3.05;;;;;;;16.49;43.07;98438.22;5094837;28;20016;-50
2022/04/13 00:07:45;;;;;;;10.18;3.13;;;;;;;16.38;43.51;98430.16;5094822;28;20028;-50
2022/04/13 00:10:11;;;;;;;10.98;2.53;;;;;;;16.27;43.79;98435.56;5094788;28;20024;-51
2022/04/13 00:12:37;;;;;;;16.48;3.88;;;;;;;16.21;43.90;98439.16;5093463;28;20024;-50
2022/04/13 00:15:05;;;;;;;14.48;4.18;;;;;;;16.24;44.21;98438.66;5093288;28;20041;-50
2022/04/13 00:17:31;;;;;;;11.77;3.28;;;;;;;16.34;44.35;98450.22;5093294;28;20092;-51
2022/04/13 00:19:58;;;;;;;10.48;3.55;;;;;;;16.46;44.11;98441.34;5094489;28;20016;-50
2022/04/13 00:22:24;;;;;;;13.43;3.33;;;;;;;16.52;43.89;98448.31;5093199;28;20379;-50
2022/04/13 00:24:50;;;;;;;11.95;2.72;;;;;;;16.59;43.64;98433.06;5094446;28;20031;-50
2022/04/13 00:27:16;;;;;;;10.48;2.63;;;;;;;16.54;43.85;98439.09;5093121;28;20042;-50
2022/04/13 00:29:42;;;;;;;8.88;2.65;;;;;;;16.50;44.08;98434.53;5094390;28;20057;-51
2022/04/13 00:32:08;;;;;;;13.60;4.00;;;;;;;16.56;44.21;98431.72;5091990;28;20486;-49
2022/04/13 00:34:34;;;;;;;17.95;3.55;;;;;;;16.58;43.81;98426.97;5092774;28;20052;-50
2022/04/13 00:37:00;;;;;;;15.73;3.40;;;;;;;16.63;44.13;98431.53;5094251;28;20116;-50
2022/04/13 00:39:26;;;;;;;14.27;3.38;;;;;;;16.58;44.34;98434.13;5094080;28;20036;-50
2022/04/13 00:41:59;;;;;;;11.13;2.78;;;;;;;16.56;44.19;98428.28;5094150;28;20027;-50
2022/04/13 00:44:30;;;;;;;8.88;2.67;;;;;;;16.57;44.10;98430.66;5092788;28;20508;-50
2022/04/13 00:47:01;;;;;;;17.05;3.47;;;;;;;16.55;44.13;98434.59;5092854;28;20050;-50
2022/04/13 00:49:26;;;;;;;16.50;2.95;;;;;;;16.48;44.27;98424.19;5094143;28;20056;-51
2022/04/13 00:51:53;;;;;;;11.18;3.15;;;;;;;16.43;44.93;98428.63;5092636;28;20082;-50
2022/04/13 00:54:20;;;;;;;13.20;3.13;;;;;;;16.34;45.18;98431.69;5093952;28;20028;-50
2022/04/13 00:56:49;;;;;;;13.75;3.22;;;;;;;16.29;45.55;98422.88;5093951;28;20020;-50
2022/04/13 00:59:15;;;;;;;14.48;2.70;;;;;;;16.22;45.51;98424.88;5093849;28;20032;-50
2022/04/13 01:01:46;;;;;;;13.02;3.08;;;;;;;16.17;45.30;98418.47;5094005;28;20370;-50
2022/04/13 01:04:13;;;;;;;14.13;4.03;;;;;;;16.13;45.73;98422.63;5093822;28;20028;-50
2022/04/13 01:06:41;;;;;;;11.77;2.90;;;;;;;16.15;45.75;98428.50;5093604;28;20568;-50
2022/04/13 01:09:08;;;;;;;15.38;3.05;;;;;;;16.23;45.89;98421.19;5093640;28;20028;-50
2022/04/13 01:11:33;;;;;;;14.82;2.95;;;;;;;16.28;45.40;98426.53;5093582;28;20045;-50
2022/04/13 01:13:59;;;;;;;8.75;2.78;;;;;;;16.26;45.51;98439.22;5093579;28;20020;-50
2022/04/13 01:16:26;;;;;;;20.65;3.67;;;;;;;16.20;45.43;98433.09;5093514;28;20027;-49
2022/04/13 01:18:53;;;;;;;17.40;3.15;;;;;;;16.21;45.73;98425.94;5093553;28;20066;-50
2022/04/13 01:21:34;;;;;;;9.82;3.10;;;;;;;16.19;45.77;98428.81;5092024;28;20051;-50
2022/04/13 01:24:02;;;;;;;11.30;3.10;;;;;;;16.24;45.84;98436.03;5093389;28;20035;-50
2022/04/13 01:26:28;;;;;;;15.93;3.72;;;;;;;16.20;45.86;98429.59;5093257;28;20062;-50
2022/04/13 01:28:54;;;;;;;16.23;3.50;;;;;;;16.21;46.06;98433.88;5093246;28;20036;-49
2022/04/13 01:31:20;;;;;;;13.30;2.53;;;;;;;16.22;46.11;98438.94;5093152;28;20102;-49
2022/04/13 01:33:45;;;;;;;13.75;3.35;;;;;;;16.22;45.93;98432.81;5091541;28;20670;-50
2022/04/13 01:36:11;;;;;;;9.13;2.47;;;;;;;16.14;46.05;98428.75;5093146;28;20031;-50
2022/04/13 01:38:36;;;;;;;12.80;2.30;;;;;;;16.02;46.35;98436.78;5091746;28;20020;-50
2022/04/13 01:41:02;;;;;;;13.98;3.20;;;;;;;15.96;46.23;98437.75;5091603;28;20031;-50
2022/04/13 01:43:28;;;;;;;15.95;3.30;;;;;;;15.84;46.89;98431.75;5092784;28;20024;-51
2022/04/13 01:45:55;;;;;;;14.50;3.08;;;;;;;15.79;47.03;98432.44;5091554;28;20024;-50
2022/04/13 01:48:20;;;;;;;13.35;3.38;;;;;;;15.76;47.39;98430.28;5092881;28;20020;-50
2022/04/13 01:50:46;;;;;;;15.10;2.42;;;;;;;15.70;47.26;98445.25;5092835;28;20494;-50
2022/04/13 01:53:12;;;;;;;13.98;4.18;;;;;;;15.63;47.40;98431.34;5092790;28;20020;-50
2022/04/13 01:55:38;;;;;;;12.40;2.58;;;;;;;15.56;47.68;98430.72;5091438;28;20027;-50
2022/04/13 01:58:04;;;;;;;13.30;3.13;;;;;;;15.47;47.68;98432.94;5092694;28;20457;-50
2022/04/13 02:00:29;;;;;;;14.07;2.75;;;;;;;15.45;47.93;98435.03;5092562;28;20028;-51
2022/04/13 02:02:55;;;;;;;12.07;2.95;;;;;;;15.31;48.00;98439.81;5092609;28;20103;-51
2022/04/13 02:05:21;;;;;;;13.13;2.78;;;;;;;15.26;48.13;98442.38;5091206;28;20497;-50
2022/04/13 02:07:46;;;;;;;13.82;3.88;;;;;;;15.21;48.25;98434.31;5092564;28;20033;-50
2022/04/13 02:10:12;;;;;;;11.25;2.92;;;;;;;15.14;48.57;98437.13;5092452;28;20031;-50
2022/04/13 02:12:38;;;;;;;13.55;4.53;;;;;;;15.12;48.89;98446.34;5092484;28;20024;-50
2022/04/13 02:15:07;;;;;;;17.70;3.47;;;;;;;15.09;49.00;98436.22;5091019;28;20028;-50
2022/04/13 02:17:33;;;;;;;12.30;2.65;;;;;;;15.02;48.99;98446.13;5090990;28;20596;-50
2022/04/13 02:19:58;;;;;;;10.50;2.42;;;;;;;15.02;49.33;98444.28;5092282;28;20066;-50
2022/04/13 02:22:24;;;;;;;17.13;4.00;;;;;;;15.01;49.04;98444.53;5090927;28;20016;-50
2022/04/13 02:24:50;;;;;;;10.75;2.83;;;;;;;15.02;49.57;98440.84;5092202;28;20469;-50
2022/04/13 02:27:16;;;;;;;14.68;3.15;;;;;;;14.98;49.17;98446.59;5090943;28;20114;-51
2022/04/13 02:29:46;;;;;;;11.35;2.97;;;;;;;14.92;49.77;98436.97;5090865;28;20490;-50
2022/04/13 02:32:12;;;;;;;25.42;4.80;;;;;;;14.90;50.19;98439.03;5092152;28;20027;-51
2022/04/13 02:34:37;;;;;;;14.85;3.22;;;;;;;14.98;50.22;98436.03;5091907;28;20497;-50
2022/04/13 02:37:03;;;;;;;13.05;2.95;;;;;;;15.04;49.89;98433.50;5092131;28;20070;-50
2022/04/13 02:39:29;;;;;;;12.68;3.83;;;;;;;15.08;50.06;98440.72;5091981;28;20020;-50
2022/04/13 02:41:55;;;;;;;15.13;3.15;;;;;;;15.10;49.76;98436.00;5090713;28;20024;-51
2022/04/13 02:44:20;;;;;;;11.90;3.65;;;;;;;15.15;49.70;98438.75;5090713;28;20038;-50
2022/04/13 02:46:46;;;;;;;13.38;3.10;;;;;;;15.21;49.66;98436.97;5091976;28;20371;-50
2022/04/13 02:49:12;;;;;;;11.10;2.80;;;;;;;15.25;49.98;98435.50;5090651;28;20378;-50
2022/04/13 02:51:38;;;;;;;18.88;3.50;;;;;;;15.28;49.27;98442.94;5090659;28;20032;-50
2022/04/13 02:54:04;;;;;;;11.10;3.05;;;;;;;15.28;49.42;98437.63;5090568;28;20020;-50
2022/04/13 02:56:30;;;;;;;13.48;3.40;;;;;;;15.34;49.26;98438.53;5089998;28;20245;-51
2022/04/13 02:58:55;;;;;;;12.65;3.05;;;;;;;15.34;49.12;98427.97;5091853;28;20629;-50
2022/04/13 03:01:21;;;;;;;14.63;3.00;;;;;;;15.38;48.88;98429.09;5090429;28;20076;-51
2022/04/13 03:03:47;;;;;;;12.80;3.38;;;;;;;15.38;48.79;98429.88;5090505;28;20081;-50
2022/04/13 03:06:13;;;;;;;15.50;3.70;;;;;;;15.40;48.66;98428.88;5090453;28;20070;-51
2022/04/13 03:08:38;;;;;;;11.75;3.58;;;;;;;15.41;48.74;98433.09;5091718;28;20107;-51
2022/04/13 03:11:04;;;;;;;15.63;3.28;;;;;;;15.42;48.56;98426.78;5091705;28;20028;-51
2022/04/13 03:13:30;;;;;;;14.68;3.55;;;;;;;15.42;48.46;98432.06;5091680;28;20382;-50
2022/04/13 03:15:56;;;;;;;15.13;3.03;;;;;;;15.40;48.71;98431.50;5091610;28;20141;-51
2022/04/13 03:18:21;;;;;;;7.95;2.22;;;;;;;15.33;48.02;98432.47;5090403;28;20058;-50
2022/04/13 03:20:47;;;;;;;9.57;2.53;;;;;;;15.30;48.15;98432.91;5091550;28;20394;-50
2022/04/13 03:23:13;;;;;;;10.75;2.58;;;;;;;15.21;48.00;98433.53;5091600;28;20016;-51
2022/04/13 03:25:39;;;;;;;12.35;2.50;;;;;;;15.18;47.56;98438.25;5091595;28;20027;-51
2022/04/13 03:28:04;;;;;;;10.10;2.30;;;;;;;15.06;47.50;98439.34;5090619;28;20051;-51
2022/04/13 03:30:30;;;;;;;7.47;2.88;;;;;;;14.91;47.58;98440.66;5091518;28;20028;-51
2022/04/13 03:32:56;;;;;;;14.55;3.50;;;;;;;14.86;47.68;98445.84;5091317;28;20123;-51
2022/04/13 03:35:24;;;;;;;16.73;3.63;;;;;;;14.88;46.98;98441.13;5091526;28;20024;-50
2022/04/13 03:37:50;;;;;;;13.93;2.78;;;;;;;14.81;46.82;98448.38;5090145;28;20066;-50
2022/04/13 03:40:15;;;;;;;9.20;2.92;;;;;;;14.75;47.50;98436.09;5090084;28;20029;-50
2022/04/13 03:42:42;;;;;;;10.02;2.28;;;;;;;14.72;47.09;98431.28;5090139;28;20035;-50
2022/04/13 03:45:13;;;;;;;14.90;2.95;;;;;;;14.72;47.14;98442.63;5091360;28;20103;-51
2022/04/13 03:47:40;;;;;;;10.82;2.35;;;;;;;14.78;46.66;98431.13;5090108;28;20032;-51
2022/04/13 03:50:07;;;;;;;12.10;2.67;;;;;;;14.77;46.75;98434.84;5091327;28;20107;-50
2022/04/13 03:52:34;;;;;;;16.33;2.90;;;;;;;14.70;46.57;98438.63;5091330;28;20020;-51
2022/04/13 03:55:04;;;;;;;13.73;3.03;;;;;;;14.63;46.96;98432.66;5091618;28;20067;-50
2022/04/13 03:57:29;;;;;;;16.63;3.47;;;;;;;14.67;47.43;98439.91;5091617;28;20039;-49
2022/04/13 03:59:56;;;;;;;10.85;2.75;;;;;;;14.68;48.02;98438.06;5089866;28;20025;-50
2022/04/13 04:02:22;;;;;;;19.20;2.88;;;;;;;14.75;48.40;98433.47;5091229;28;20028;-50
2022/04/13 04:04:47;;;;;;;13.98;3.10;;;;;;;14.80;48.02;98436.19;5091238;28;20134;-50
2022/04/13 04:07:13;;;;;;;12.70;3.08;;;;;;;14.85;47.83;98449.53;5089957;28;20494;-50
2022/04/13 04:09:39;;;;;;;18.23;3.85;;;;;;;14.87;47.81;98447.44;5093467;28;20027;-51
2022/04/13 04:12:05;;;;;;;21.52;3.45;;;;;;;14.88;47.16;98448.25;5093448;28;20135;-51
2022/04/13 04:14:31;;;;;;;15.35;2.97;;;;;;;14.77;47.07;98450.69;5093351;28;20506;-50
2022/04/13 04:16:56;;;;;;;13.65;2.50;;;;;;;14.76;47.42;98449.06;5093338;28;20124;-50
2022/04/13 04:19:22;;;;;;;11.68;2.50;;;;;;;14.84;47.02;98449.75;5093314;28;20028;-51
2022/04/13 04:21:48;;;;;;;9.32;2.85;;;;;;;14.87;46.52;98446.63;5094479;28;20024;-50
2022/04/13 04:24:13;;;;;;;7.55;2.35;;;;;;;14.87;46.35;98455.38;5094550;28;20012;-51
2022/04/13 04:26:39;;;;;;;13.52;2.80;;;;;;;14.87;46.51;98455.38;5094495;28;20424;-50
2022/04/13 04:29:05;;;;;;;14.35;4.60;;;;;;;14.87;46.85;98458.03;5094458;28;20024;-50
2022/04/13 04:34:15;;;;;;;18.35;3.60;;;;;;;14.68;46.59;98448.63;5094125;28;20051;-50
2022/04/13 04:36:41;;;;;;;14.05;2.65;;;;;;;14.72;46.26;98458.50;5094253;28;20016;-50
2022/04/13 04:39:07;;;;;;;15.07;2.58;;;;;;;14.77;46.66;98471.03;5094262;28;20034;-49
2022/04/13 04:41:33;;;;;;;14.23;2.60;;;;;;;14.86;45.91;98464.31;5092787;28;20074;-50
2022/04/13 04:43:59;;;;;;;9.07;2.28;;;;;;;14.83;45.76;98474.53;5092862;28;20028;-50
2022/04/13 04:46:25;;;;;;;14.45;2.33;;;;;;;14.71;46.52;98471.94;5092781;28;20043;-51
2022/04/13 04:48:51;;;;;;;20.77;2.30;;;;;;;14.71;46.51;98479.88;5094345;28;20028;-50
2022/04/13 04:51:17;;;;;;;18.38;2.97;;;;;;;14.67;45.94;98478.72;5094010;28;20505;-50
2022/04/13 04:53:42;;;;;;;14.35;3.05;;;;;;;14.63;46.46;98485.50;5092673;28;20028;-49
2022/04/13 04:56:08;;;;;;;11.65;2.15;;;;;;;14.65;46.43;98492.16;5093915;28;20024;-50
2022/04/13 04:58:34;;;;;;;10.50;2.92;;;;;;;14.60;46.40;98478.03;5092550;28;20024;-50
2022/04/13 05:00:59;;;;;;;14.57;2.83;;;;;;;14.58;46.67;98492.25;5092448;28;20051;-49
2022/04/13 05:03:25;;;;;;;8.23;2.15;;;;;;;14.55;46.03;98484.78;5092474;28;20410;-49
2022/04/13 05:05:51;;;;;;;13.63;3.17;;;;;;;14.54;46.24;98501.66;5092363;28;20461;-50
2022/04/13 05:08:17;;;;;;;7.78;2.25;;;;;;;14.51;46.82;98503.97;5093703;28;20028;-50
2022/04/13 05:10:47;;;;;;;9.95;2.55;;;;;;;14.48;46.75;98497.28;5092241;28;20038;-50
2022/04/13 05:13:14;;;;;;;11.68;2.70;;;;;;;14.50;46.81;98502.34;5092283;28;20035;-50
2022/04/13 05:15:41;;;;;;;10.40;3.15;;;;;;;14.48;46.76;98499.13;5093513;28;20024;-51
2022/04/13 05:18:07;;;;;;;13.65;2.63;;;;;;;14.39;47.14;98511.88;5091757;28;20111;-50
2022/04/13 05:20:33;;;;;;;9.77;2.60;;;;;;;14.30;46.81;98516.69;5092013;28;20446;-50
2022/04/13 05:22:58;;;;;;;15.43;3.85;;;;;;;14.29;47.84;98506.38;5092123;28;20439;-50
2022/04/13 05:25:24;;;;;;;13.65;3.17;;;;;;;14.44;47.06;98513.84;5093381;28;20052;-50
2022/04/13 05:27:50;;;;;;;11.52;3.05;;;;;;;14.47;47.67;98518.66;5092011;28;20096;-50
2022/04/13 05:30:15;;;;;;;11.35;2.42;;;;;;;14.47;47.23;98516.03;5091914;28;20028;-50
2022/04/13 05:32:49;;;;;;;15.32;3.33;;;;;;;14.44;47.06;98519.13;5092917;28;20052;-50
2022/04/13 05:35:16;;;;;;;12.05;2.35;;;;;;;14.57;46.56;98514.44;5091890;28;20040;-49
2022/04/13 05:37:42;;;;;;;11.38;2.70;;;;;;;14.72;46.28;98518.44;5093115;28;20023;-50
2022/04/13 05:40:08;;;;;;;10.68;2.90;;;;;;;14.98;45.66;98512.66;5091661;28;20118;-50
2022/04/13 05:42:34;;;;;;;10.23;2.42;;;;;;;15.20;44.80;98519.19;5091673;28;20486;-50
2022/04/13 05:44:59;;;;;;;13.55;3.28;;;;;;;15.33;44.65;98519.72;5092997;28;20027;-50
2022/04/13 05:47:26;;;;;;;11.43;2.83;;;;;;;15.42;44.67;98527.28;5091621;28;20020;-50
2022/04/13 05:49:52;;;;;;;13.02;3.08;;;;;;;15.50;44.85;98535.63;5092858;28;20166;-51
2022/04/13 05:52:17;;;;;;;12.05;2.67;;;;;;;15.60;44.24;98535.00;5091504;28;20066;-50
2022/04/13 05:54:43;;;;;;;13.85;2.63;;;;;;;15.80;44.59;98536.47;5091501;28;20615;-50
2022/04/13 05:57:09;;;;;;;8.75;2.95;;;;;;;15.86;44.28;98543.44;5091539;28;20020;-51
2022/04/13 05:59:36;;;;;;;12.73;2.75;;;;;;;15.78;44.08;98542.00;5092627;28;20030;-50
2022/04/13 06:02:02;;;;;;;20.20;3.50;;;;;;;15.68;44.73;98545.22;5092720;28;20028;-50
2022/04/13 06:04:28;;;;;;;18.60;3.28;;;;;;;15.83;44.01;98551.84;5091373;28;20024;-51
2022/04/13 06:06:54;;;;;;;19.15;4.10;;;;;;;16.13;43.91;98552.38;5092568;28;20096;-51
2022/04/13 06:09:22;;;;;;;18.48;4.45;;;;;;;16.36;43.43;98548.00;5091274;28;20058;-51
2022/04/13 06:11:49;;;;;;;15.02;3.53;;;;;;;16.60;43.07;98566.34;5091233;28;20551;-50
2022/04/13 06:14:15;;;;;;;15.50;4.18;;;;;;;16.73;42.98;98572.09;5092731;28;20028;-50
2022/04/13 06:16:40;;;;;;;11.80;4.10;;;;;;;16.94;43.40;98570.59;5092399;28;20303;-50
2022/04/13 06:19:06;;;;;;;24.25;4.80;;;;;;;17.22;42.23;98574.09;5092458;28;20028;-50
2022/04/13 06:21:32;;;;;;;20.33;4.75;;;;;;;17.68;41.69;98582.59;5092236;28;20027;-51
2022/04/13 06:23:57;;;;;;;24.70;4.95;;;;;;;18.12;41.12;98577.22;5092357;28;20528;-50
2022/04/13 06:26:23;;;;;;;48.42;5.32;;;;;;;18.61;40.12;98576.28;5092301;28;20055;-50
2022/04/13 06:28:49;;;;;;;32.05;4.43;;;;;;;18.95;38.90;98578.66;5090984;28;20028;-50
2022/04/13 06:31:14;;;;;;;18.55;3.75;;;;;;;19.08;38.63;98574.75;5091354;28;20028;-50
2022/04/13 06:33:40;;;;;;;13.10;3.50;;;;;;;19.08;38.62;98578.19;5090595;28;20083;-50
2022/04/13 06:36:06;;;;;;;42.03;6.80;;;;;;;19.08;38.59;98580.88;5090758;28;20555;-50
2022/04/13 06:38:33;;;;;;;62.75;6.20;;;;;;;19.08;38.45;98582.72;5092061;28;20495;-50
2022/04/13 06:40:59;;;;;;;24.60;5.15;;;;;;;18.95;38.66;98576.81;5090714;28;20027;-51
2022/04/13 06:43:24;;;;;;;43.63;5.90;;;;;;;18.83;38.52;98592.16;5090698;28;20028;-50
2022/04/13 06:45:53;;;;;;;138.13;14.40;;;;;;;18.77;38.71;98598.44;5090649;28;20025;-51
2022/04/13 06:48:21;;;;;;;47.10;6.13;;;;;;;18.84;38.60;98599.06;5091905;28;20116;-50
2022/04/13 06:50:47;;;;;;;29.52;5.60;;;;;;;18.84;38.47;98593.75;5090660;28;20024;-51
2022/04/13 06:53:14;;;;;;;17.65;4.07;;;;;;;18.88;38.05;98594.84;5091911;28;20056;-49
2022/04/13 06:55:41;;;;;;;34.03;5.43;;;;;;;19.16;38.07;98598.19;5091833;28;20020;-50
2022/04/13 06:58:07;;;;;;;92.70;10.10;;;;;;;19.42;38.39;98585.00;5073822;28;20031;-51
2022/04/13 07:00:34;;;;;;;24.20;4.45;;;;;;;19.72;38.14;98587.00;5091784;28;20073;-50
2022/04/13 07:03:00;;;;;;;26.83;3.85;;;;;;;20.03;37.30;98592.38;5091838;28;20061;-50
2022/04/13 07:05:26;;;;;;;23.17;3.92;;;;;;;20.18;36.70;98591.59;5090426;28;20107;-49
2022/04/13 07:07:52;;;;;;;16.33;3.30;;;;;;;20.26;36.56;98604.38;5091768;28;20028;-51
2022/04/13 07:10:18;;;;;;;31.08;4.30;;;;;;;20.27;36.30;98593.47;5090418;28;20039;-51
2022/04/13 07:12:44;;;;;;;31.60;5.20;;;;;;;20.29;37.37;98603.88;5090389;28;20115;-51
2022/04/13 07:15:10;;;;;;;38.90;6.22;;;;;;;20.28;38.02;98607.59;5090412;28;20129;-50
2022/04/13 07:17:35;;;;;;;39.83;5.88;;;;;;;20.40;37.83;98613.47;5091688;28;20043;-50
2022/04/13 07:20:02;;;;;;;33.60;4.70;;;;;;;20.50;37.65;98618.00;5091573;28;20012;-50
2022/04/13 07:22:27;;;;;;;141.38;12.50;;;;;;;20.41;38.19;98616.94;5091608;28;20547;-49
2022/04/13 07:24:53;;;;;;;85.32;7.78;;;;;;;20.40;38.25;98607.34;5091591;28;20016;-51
2022/04/13 07:27:19;;;;;;;34.15;4.40;;;;;;;20.61;37.77;98616.16;5090191;28;20470;-50
2022/04/13 07:29:44;;;;;;;47.72;5.57;;;;;;;21.08;37.20;98612.34;5090265;28;20028;-51
2022/04/13 07:32:10;;;;;;;51.58;6.20;;;;;;;21.26;36.68;98617.09;5091527;28;20028;-50
2022/04/13 07:34:36;;;;;;;66.13;7.25;;;;;;;21.03;36.55;98617.72;5091308;28;20040;-51
2022/04/13 07:37:04;;;;;;;42.20;5.55;;;;;;;20.85;36.94;98616.41;5073501;28;20389;-50
2022/04/13 07:39:30;;;;;;;62.38;7.50;;;;;;;21.12;36.60;98624.09;5091499;28;20028;-51
2022/04/13 07:41:55;;;;;;;111.32;10.05;;;;;;;21.26;36.42;98630.44;5091328;28;20122;-52
2022/04/13 07:44:21;;;;;;;129.32;12.88;;;;;;;21.30;36.08;98626.16;5093997;28;20028;-50
2022/04/13 07:46:47;;;;;;;74.60;8.57;;;;;;;21.34;36.36;98632.56;5095221;28;20027;-51
2022/04/13 07:49:12;;;;;;;25.10;4.20;;;;;;;21.47;35.70;98628.56;5093857;28;20502;-51
2022/04/13 07:51:41;;;;;;;24.85;3.65;;;;;;;21.08;36.39;98629.16;5095193;28;20080;-50
2022/04/13 07:54:07;;;;;;;42.58;5.30;;;;;;;20.87;36.75;98631.06;5093843;28;20040;-49
2022/04/13 07:56:33;;;;;;;25.23;4.53;;;;;;;20.86;37.05;98636.69;5093774;28;20132;-51
2022/04/13 07:58:58;;;;;;;26.83;6.95;;;;;;;21.17;36.47;98631.28;5094040;28;20174;-50
2022/04/13 08:01:24;;;;;;;27.52;6.05;;;;;;;21.52;36.13;98633.06;5093600;28;20082;-49
2022/04/13 08:03:50;;;;;;;36.17;6.97;;;;;;;21.68;35.62;98633.81;5094950;28;20482;-50
2022/04/13 08:06:16;;;;;;;20.17;6.05;;;;;;;21.77;35.25;98640.16;5094822;28;20054;-50
2022/04/13 08:08:41;;;;;;;20.58;4.30;;;;;;;22.04;34.42;98646.97;5094909;28;20027;-50
2022/04/13 08:11:07;;;;;;;28.50;4.95;;;;;;;22.62;33.96;98641.00;5093524;28;20115;-50
2022/04/13 08:13:33;;;;;;;19.65;4.10;;;;;;;23.02;32.70;98642.53;5093444;28;20382;-50
2022/04/13 08:15:59;;;;;;;20.58;3.55;;;;;;;23.04;32.42;98644.91;5093455;28;20023;-51
2022/04/13 08:18:25;;;;;;;17.38;4.20;;;;;;;23.17;32.04;98644.22;5093352;28;20028;-49
2022/04/13 08:20:50;;;;;;;17.00;3.63;;;;;;;23.40;31.56;98641.84;5093256;28;20043;-50
2022/04/13 08:23:16;;;;;;;18.80;3.35;;;;;;;23.75;30.87;98642.50;5094597;28;20024;-50
2022/04/13 08:25:42;;;;;;;23.52;11.13;;;;;;;23.89;30.32;98643.41;5093266;28;20077;-51
2022/04/13 08:28:08;;;;;;;18.48;4.32;;;;;;;23.99;29.94;98645.94;5094881;28;20024;-50
2022/04/13 08:30:34;;;;;;;19.65;4.57;;;;;;;23.97;30.04;98648.13;5094439;28;20107;-50
2022/04/13 08:33:00;;;;;;;15.13;3.75;;;;;;;24.30;30.02;98640.91;5094178;28;20123;-50
2022/04/13 08:35:26;;;;;;;19.42;4.10;;;;;;;24.27;29.88;98648.78;5094265;28;20027;-51
2022/04/13 08:37:52;;;;;;;17.23;4.70;;;;;;;23.92;30.54;98649.00;5093010;28;20036;-49
2022/04/13 08:40:19;;;;;;;16.13;4.07;;;;;;;23.83;30.26;98647.25;5092835;28;20032;-50
2022/04/13 08:43:10;;;;;;;56.45;7.05;;;;;;;23.53;30.58;98644.63;5094204;28;20058;-50
2022/04/13 08:45:42;;;;;;;30.77;5.72;;;;;;;23.30;30.73;98650.78;5092893;28;20028;-51
2022/04/13 08:48:12;;;;;;;107.40;10.07;;;;;;;23.08;31.03;98652.09;5094187;28;20055;-51
2022/04/13 08:50:41;;;;;;;65.28;7.80;;;;;;;23.21;31.04;98650.63;5092763;28;20444;-50
2022/04/13 08:53:12;;;;;;;202.18;18.40;;;;;;;23.49;30.40;98650.84;5093213;28;20485;-51
2022/04/13 08:55:45;;;;;;;160.60;11.98;;;;;;;24.04;29.73;98651.22;5094052;28;20442;-52
2022/04/13 08:58:10;;;;;;;166.68;16.95;;;;;;;24.57;29.19;98650.22;5093943;28;20036;-51
2022/04/13 09:00:41;;;;;;;95.18;8.73;;;;;;;24.94;28.59;98648.50;5092475;28;20024;-50
2022/04/13 09:03:09;;;;;;;23.40;3.90;;;;;;;25.39;28.08;98639.91;5093878;28;20050;-51
2022/04/13 09:05:37;;;;;;;18.95;2.83;;;;;;;25.63;27.98;98647.75;5093754;28;20032;-51
2022/04/13 09:08:08;;;;;;;34.13;4.93;;;;;;;25.93;27.02;98649.03;5092386;28;20032;-51
2022/04/13 09:10:36;;;;;;;28.33;4.47;;;;;;;26.42;26.29;98650.06;5093713;28;20024;-51
2022/04/13 09:13:02;;;;;;;22.85;4.55;;;;;;;26.85;25.61;98660.34;5093623;28;20397;-51
2022/04/13 09:15:28;;;;;;;220.95;23.25;;;;;;;27.50;25.12;98647.31;5093823;28;20035;-50
2022/04/13 09:17:55;;;;;;;119.97;13.25;;;;;;;28.12;24.64;98648.25;5092209;28;20023;-52
2022/04/13 09:20:21;;;;;;;89.25;10.07;;;;;;;28.20;24.16;98642.84;5092044;28;20028;-51
2022/04/13 09:22:49;;;;;;;48.47;16.00;;;;;;;28.02;23.90;98643.94;5093494;28;20031;-51
2022/04/13 09:25:18;;;;;;;63.50;49.67;;;;;;;27.99;23.99;98645.38;5093336;28;20016;-51
2022/04/13 09:27:44;;;;;;;52.20;9.95;;;;;;;28.30;23.71;98649.81;5093306;28;20099;-51
2022/04/13 09:30:10;;;;;;;21.05;4.30;;;;;;;28.68;22.78;98651.88;5092062;28;20659;-49
2022/04/13 09:32:36;;;;;;;28.45;4.28;;;;;;;28.75;22.73;98654.84;5091642;28;20020;-51
2022/04/13 09:35:03;;;;;;;21.95;4.05;;;;;;;28.51;23.37;98660.78;5093218;28;20111;-51
2022/04/13 09:37:30;;;;;;;24.25;3.88;;;;;;;28.43;22.76;98664.25;5093122;28;20024;-51
2022/04/13 09:39:58;;;;;;;22.98;3.50;;;;;;;28.25;23.14;98660.75;5091729;28;20502;-51
2022/04/13 09:42:27;;;;;;;8.23;2.63;;;;;;;28.00;23.18;98652.34;5093008;28;20024;-51
2022/04/13 09:44:57;;;;;;;31.20;4.70;;;;;;;27.77;23.56;98646.28;5093010;28;20055;-51
2022/04/13 09:47:31;;;;;;;23.23;3.38;;;;;;;27.66;23.51;98645.78;5092931;28;20012;-51
2022/04/13 09:49:57;;;;;;;22.15;3.55;;;;;;;27.57;23.55;98646.84;5093025;28;20522;-51
2022/04/13 09:52:34;;;;;;;35.67;4.55;;;;;;;27.50;23.97;98650.00;5092798;28;20026;-50
2022/04/13 09:55:04;;;;;;;11.80;2.85;;;;;;;27.69;23.64;98642.47;5092801;28;20026;-51
2022/04/13 09:57:30;;;;;;;25.45;4.00;;;;;;;27.99;23.69;98641.88;5092792;28;20098;-50
2022/04/13 09:59:57;;;;;;;29.55;4.13;;;;;;;28.32;23.02;98638.72;5091354;28;20024;-51
2022/04/13 10:02:40;;;;;;;11.48;2.40;;;;;;;28.90;22.66;98642.75;5091660;28;20047;-51
2022/04/13 10:05:08;;;;;;;9.50;2.60;;;;;;;29.59;21.66;98638.19;5074652;28;20035;-53
2022/04/13 10:07:35;;;;;;;7.68;2.55;;;;;;;29.99;21.11;98635.84;5091271;28;20024;-51
2022/04/13 10:10:02;;;;;;;13.30;3.00;;;;;;;30.16;21.09;98634.13;5091583;28;20484;-50
2022/04/13 10:12:28;;;;;;;16.10;3.25;;;;;;;30.01;21.06;98632.81;5092496;28;20553;-51
2022/04/13 10:15:07;;;;;;;13.48;3.25;;;;;;;29.72;21.24;98631.75;5091158;28;20111;-52
2022/04/13 10:17:33;;;;;;;15.15;3.60;;;;;;;29.74;21.07;98624.13;5092732;28;20032;-50
2022/04/13 10:19:59;;;;;;;13.45;3.45;;;;;;;29.27;21.50;98621.47;5092326;28;20024;-51
2022/04/13 10:22:25;;;;;;;16.35;4.60;;;;;;;28.70;21.96;98624.56;5091048;28;20032;-51
2022/04/13 10:24:51;;;;;;;10.07;2.78;;;;;;;29.16;21.85;98617.59;5092331;28;20030;-51
2022/04/13 10:27:24;;;;;;;7.18;2.55;;;;;;;30.09;21.30;98615.72;5090973;28;20080;-51
2022/04/13 10:29:50;;;;;;;12.52;2.40;;;;;;;31.14;20.20;98607.31;5092293;28;20034;-50
2022/04/13 10:32:26;;;;;;;12.30;3.33;;;;;;;31.77;19.89;98612.34;5092145;28;20027;-51
2022/04/13 10:34:55;;;;;;;10.60;2.80;;;;;;;32.28;19.38;98608.34;5092185;28;20048;-51
2022/04/13 10:37:23;;;;;;;9.13;2.67;;;;;;;32.21;18.90;98606.22;5092110;28;20492;-51
2022/04/13 10:39:50;;;;;;;11.88;2.88;;;;;;;32.40;18.75;98594.72;5091956;28;20020;-51
2022/04/13 10:42:17;;;;;;;9.02;2.17;;;;;;;32.91;18.25;98591.38;5092070;28;20061;-51
2022/04/13 10:44:53;;;;;;;11.13;2.70;;;;;;;32.79;18.14;98590.31;5091990;28;20059;-52
2022/04/13 10:47:28;;;;;;;13.98;2.70;;;;;;;32.45;18.48;98589.81;5090751;28;20413;-51
2022/04/13 10:50:03;;;;;;;7.50;2.45;;;;;;;31.99;19.09;98589.31;5092039;28;20028;-51
2022/04/13 10:52:47;;;;;;;10.95;3.38;;;;;;;31.25;20.00;98586.75;5091975;28;20073;-51
2022/04/13 10:55:14;;;;;;;7.63;2.70;;;;;;;30.77;20.20;98588.31;5092268;28;20043;-52
2022/04/13 10:57:52;;;;;;;8.93;2.58;;;;;;;30.36;19.89;98592.72;5090767;28;20429;-51
2022/04/13 11:00:20;;;;;;;8.55;2.40;;;;;;;30.00;20.51;98587.94;5090624;28;20028;-50
2022/04/13 11:03:01;;;;;;;12.30;2.47;;;;;;;29.87;20.35;98595.19;5091875;28;20029;-50
2022/04/13 11:05:27;;;;;;;10.18;4.03;;;;;;;29.70;20.66;98584.47;5091880;28;20028;-50
2022/04/13 11:08:05;;;;;;;9.38;2.83;;;;;;;29.45;20.91;98584.34;5090492;28;20035;-50
2022/04/13 11:10:34;;;;;;;6.45;2.90;;;;;;;28.95;20.93;98588.53;5074749;28;20036;-51
2022/04/13 11:13:00;;;;;;;7.25;2.25;;;;;;;28.55;21.83;98596.13;5091777;28;20520;-49
2022/04/13 11:15:46;;;;;;;8.60;3.17;;;;;;;28.22;22.21;98593.94;5090401;28;20114;-50
2022/04/13 11:18:16;;;;;;;9.75;2.40;;;;;;;27.95;22.79;98595.88;5095288;28;20039;-50
2022/04/13 11:21:07;;;;;;;9.57;2.17;;;;;;;27.62;22.92;98593.59;5095735;28;20451;-50
2022/04/13 11:23:47;;;;;;;10.93;2.70;;;;;;;27.56;22.78;98591.38;5094457;28;20471;-51
2022/04/13 11:26:13;;;;;;;12.05;2.97;;;;;;;27.38;23.00;98585.13;5095702;28;20051;-51